Time;durP1;ratioP1;P1;durP2;ratioP2;P2;SDS_P1;SDS_P2;PMS_P1;PMS_P2;Temp;Humidity;BMP_temperature;BMP_pressure;BME280_temperature;BME280_humidity;BME280_pressure;Samples;Min_cycle;Max_cycle;Signal;HPM_P1;HPM_P2
2023/12/30 00:01:47;;;;;;;0.60;0.00;;;;;;;0.95;64.25;100348.72;4973236;28;21004;-68
2023/12/30 00:04:13;;;;;;;1.23;0.20;;;;;;;1.25;63.67;100355.31;4964278;28;20034;-68
2023/12/30 00:06:39;;;;;;;0.38;0.10;;;;;;;1.16;63.84;100364.84;4972521;28;20050;-68
2023/12/30 00:09:05;;;;;;;2.10;0.10;;;;;;;1.35;62.81;100371.53;4965999;28;20042;-69
2023/12/30 00:11:31;;;;;;;5.03;0.17;;;;;;;0.99;64.28;100371.00;4964990;28;20072;-69
2023/12/30 00:13:59;;;;;;;1.40;0.17;;;;;;;1.08;64.47;100362.31;4965059;28;21431;-68
2023/12/30 00:16:28;;;;;;;1.15;0.40;;;;;;;1.22;63.66;100364.78;4965538;28;20035;-65
2023/12/30 00:18:53;;;;;;;0.80;0.10;;;;;;;1.72;62.98;100376.31;4963716;28;20046;-64
2023/12/30 00:21:20;;;;;;;7.43;0.20;;;;;;;1.10;65.10;100374.34;4964360;28;20062;-64
2023/12/30 00:23:46;;;;;;;0.47;0.03;;;;;;;1.62;63.03;100367.84;4961953;28;20855;-65
2023/12/30 00:26:26;;;;;;;6.32;0.10;;;;;;;1.58;63.41;100365.31;4967130;28;20130;-64
2023/12/30 00:29:08;;;;;;;3.30;0.15;;;;;;;1.40;63.84;100367.22;4960023;28;20058;-64
2023/12/30 00:31:34;;;;;;;3.28;0.35;;;;;;;1.49;63.66;100380.00;4962493;28;20146;-64
2023/12/30 00:34:01;;;;;;;4.60;0.47;;;;;;;1.73;62.92;100375.47;4960171;28;20062;-64
2023/12/30 00:36:29;;;;;;;5.88;0.32;;;;;;;1.40;63.89;100380.09;4963434;28;20042;-64
2023/12/30 00:38:56;;;;;;;2.50;0.13;;;;;;;1.73;62.63;100380.63;4960078;28;20042;-65
2023/12/30 00:41:22;;;;;;;0.60;0.10;;;;;;;1.41;63.63;100392.09;4994363;28;20088;-65
2023/12/30 00:43:48;;;;;;;3.58;0.20;;;;;;;1.38;64.29;100392.09;4954437;28;20648;-64
2023/12/30 00:46:13;;;;;;;7.20;0.28;;;;;;;1.45;64.27;100390.34;4945918;28;20042;-66
2023/12/30 00:48:39;;;;;;;5.53;0.20;;;;;;;1.80;63.39;100389.97;4987878;28;20360;-65
2023/12/30 00:51:04;;;;;;;2.35;0.10;;;;;;;1.78;63.18;100393.44;4960575;28;20060;-65
2023/12/30 00:53:30;;;;;;;6.75;0.30;;;;;;;1.73;63.30;100393.50;4956157;28;20540;-65
2023/12/30 00:55:56;;;;;;;6.50;0.20;;;;;;;1.80;62.99;100404.59;4988864;28;20172;-65
2023/12/30 00:58:22;;;;;;;3.75;0.40;;;;;;;1.70;63.54;100414.97;4959541;28;20050;-65
2023/12/30 01:00:49;;;;;;;5.28;0.20;;;;;;;1.72;63.25;100417.53;4953378;28;20494;-65
2023/12/30 01:03:14;;;;;;;9.70;0.55;;;;;;;1.82;62.96;100413.13;4963123;28;20072;-65
2023/12/30 01:05:40;;;;;;;4.88;0.10;;;;;;;1.64;63.05;100420.22;4956790;28;20062;-65
2023/12/30 01:08:05;;;;;;;2.45;0.40;;;;;;;1.87;62.19;100409.66;4973972;28;20539;-65
2023/12/30 01:10:31;;;;;;;2.47;0.30;;;;;;;1.61;63.10;100409.91;4953953;28;20039;-64
2023/12/30 01:12:56;;;;;;;4.18;0.55;;;;;;;1.48;63.29;100404.06;4964293;28;20034;-64
2023/12/30 01:15:22;;;;;;;7.50;0.40;;;;;;;1.20;63.42;100400.00;4959444;28;20069;-64
2023/12/30 01:17:47;;;;;;;4.63;0.45;;;;;;;1.31;63.95;100416.19;4962668;28;20418;-64
2023/12/30 01:20:13;;;;;;;3.75;0.32;;;;;;;1.15;64.03;100419.75;4961057;28;20047;-64
2023/12/30 01:22:38;;;;;;;11.10;0.85;;;;;;;1.49;63.30;100416.06;4963180;28;20706;-64
2023/12/30 01:25:05;;;;;;;2.83;0.10;;;;;;;1.49;63.50;100421.19;4987247;28;20037;-64
2023/12/30 01:27:31;;;;;;;7.30;0.30;;;;;;;1.52;63.14;100428.03;4954057;28;20113;-64
2023/12/30 01:29:56;;;;;;;4.95;0.25;;;;;;;1.86;62.36;100425.13;4963338;28;20573;-64
2023/12/30 01:32:22;;;;;;;4.45;0.20;;;;;;;1.71;62.62;100428.72;4965789;28;20097;-64
2023/12/30 01:34:48;;;;;;;3.80;0.25;;;;;;;1.48;63.16;100428.94;4963716;28;20034;-64
2023/12/30 01:37:16;;;;;;;2.20;0.20;;;;;;;1.59;62.49;100442.56;4959968;28;20042;-65
2023/12/30 01:39:41;;;;;;;6.97;0.35;;;;;;;1.84;62.41;100450.94;4955995;28;20034;-65
2023/12/30 01:42:07;;;;;;;6.13;0.45;;;;;;;2.12;60.95;100448.03;4974457;28;20034;-65
2023/12/30 01:44:32;;;;;;;3.47;0.57;;;;;;;2.09;61.43;100436.03;4945519;28;20039;-66
2023/12/30 01:46:59;;;;;;;8.63;0.43;;;;;;;1.68;62.85;100446.78;4958144;28;20042;-66
2023/12/30 01:49:25;;;;;;;9.15;0.30;;;;;;;2.08;62.21;100438.63;4971921;28;20101;-66
2023/12/30 01:51:52;;;;;;;5.07;0.47;;;;;;;2.03;61.85;100442.97;4961754;28;20054;-66
2023/12/30 01:54:19;;;;;;;6.95;1.15;;;;;;;1.73;62.69;100442.44;4959967;28;20046;-66
2023/12/30 01:56:44;;;;;;;4.00;0.32;;;;;;;1.44;62.50;100438.44;4984211;28;20030;-66
2023/12/30 01:59:14;;;;;;;3.78;0.30;;;;;;;1.29;63.99;100457.41;4971249;28;20053;-67
2023/12/30 02:01:40;;;;;;;3.60;0.20;;;;;;;1.70;62.74;100451.03;4958185;28;20085;-67
2023/12/30 02:04:06;;;;;;;3.00;0.15;;;;;;;1.57;63.03;100448.59;4958006;28;20049;-66
2023/12/30 02:06:31;;;;;;;2.42;0.45;;;;;;;1.81;62.09;100452.66;4958509;28;20045;-66
2023/12/30 02:08:57;;;;;;;3.08;0.20;;;;;;;1.66;62.52;100453.66;4955981;28;20131;-67
2023/12/30 02:11:22;;;;;;;7.57;0.28;;;;;;;1.50;62.67;100448.66;4957764;28;20037;-67
2023/12/30 02:13:48;;;;;;;6.28;0.30;;;;;;;1.32;63.45;100448.78;4955853;28;20053;-68
2023/12/30 02:16:14;;;;;;;5.57;0.50;;;;;;;1.70;62.16;100455.34;4962781;28;20034;-68
2023/12/30 02:18:40;;;;;;;4.22;0.68;;;;;;;1.43;63.41;100447.00;4958798;28;20046;-67
2023/12/30 02:21:05;;;;;;;6.25;0.88;;;;;;;1.79;62.11;100451.81;4976312;28;20042;-68
2023/12/30 02:23:31;;;;;;;12.18;0.40;;;;;;;1.58;62.82;100450.31;4960137;28;20077;-67
2023/12/30 02:25:57;;;;;;;7.82;0.45;;;;;;;1.61;62.68;100447.72;4958870;28;20070;-66
2023/12/30 02:28:22;;;;;;;4.65;1.20;;;;;;;1.46;63.24;100440.97;4961107;28;20067;-65
2023/12/30 02:30:48;;;;;;;8.48;0.73;;;;;;;1.83;62.22;100450.94;4959679;28;20261;-66
2023/12/30 02:33:13;;;;;;;9.50;0.85;;;;;;;2.09;61.16;100443.75;4958658;28;20614;-65
2023/12/30 02:35:42;;;;;;;2.30;0.85;;;;;;;1.83;61.80;100441.47;4956246;28;20429;-65
2023/12/30 02:38:08;;;;;;;8.57;0.50;;;;;;;1.80;61.79;100446.66;4964108;28;20073;-65
2023/12/30 02:40:34;;;;;;;6.45;1.38;;;;;;;1.32;62.59;100444.47;4972761;28;20649;-65
2023/12/30 02:42:59;;;;;;;7.80;0.47;;;;;;;1.52;62.62;100452.06;4956796;28;20038;-64
2023/12/30 02:45:25;;;;;;;8.65;0.40;;;;;;;2.03;61.25;100453.28;4943082;28;20031;-66
2023/12/30 02:47:51;;;;;;;3.22;0.20;;;;;;;1.59;62.32;100452.03;4955499;28;21434;-64
2023/12/30 02:50:16;;;;;;;10.27;0.30;;;;;;;2.05;61.07;100454.13;4959396;28;20375;-66
2023/12/30 02:52:42;;;;;;;11.60;0.82;;;;;;;2.20;60.39;100441.06;4955027;28;20506;-65
2023/12/30 02:55:08;;;;;;;5.22;0.32;;;;;;;2.01;60.52;100449.88;4957393;28;20057;-64
2023/12/30 02:57:33;;;;;;;3.85;0.25;;;;;;;1.90;60.94;100458.56;4955832;28;20155;-65
2023/12/30 02:59:59;;;;;;;5.85;0.55;;;;;;;1.78;60.76;100471.59;4956493;28;20090;-64
2023/12/30 03:02:24;;;;;;;9.65;0.35;;;;;;;1.77;60.58;100467.28;4963055;28;20105;-65
2023/12/30 03:04:54;;;;;;;10.88;0.50;;;;;;;2.10;59.42;100465.22;4955032;28;20096;-65
2023/12/30 03:07:20;;;;;;;16.85;0.90;;;;;;;1.91;60.06;100468.03;4961150;28;20069;-65
2023/12/30 03:09:46;;;;;;;4.75;0.73;;;;;;;1.49;60.46;100470.13;4954305;28;20074;-66
2023/12/30 03:12:14;;;;;;;5.75;0.30;;;;;;;1.83;60.30;100481.84;4988447;28;20041;-65
2023/12/30 03:14:40;;;;;;;3.83;0.40;;;;;;;1.84;60.23;100470.66;4955335;28;20038;-65
2023/12/30 03:17:05;;;;;;;5.18;0.47;;;;;;;2.45;58.32;100477.72;4957737;28;20088;-64
2023/12/30 03:19:31;;;;;;;5.20;1.17;;;;;;;2.19;58.83;100472.00;4964731;28;20087;-64
2023/12/30 03:21:56;;;;;;;5.20;0.32;;;;;;;1.52;60.33;100475.25;4954561;28;20053;-66
2023/12/30 03:24:22;;;;;;;3.70;0.90;;;;;;;1.98;59.11;100486.00;4960416;28;20046;-68
2023/12/30 03:26:47;;;;;;;4.97;0.38;;;;;;;1.82;59.63;100481.00;4958759;28;20033;-69
2023/12/30 03:29:13;;;;;;;8.73;1.15;;;;;;;1.81;59.38;100468.13;4965344;28;20057;-63
2023/12/30 03:31:39;;;;;;;6.18;1.20;;;;;;;2.10;58.75;100475.53;4956093;28;20553;-63
2023/12/30 03:34:05;;;;;;;5.80;0.95;;;;;;;1.65;59.68;100467.44;4963966;28;20402;-63
2023/12/30 03:36:30;;;;;;;12.85;0.73;;;;;;;2.00;58.43;100468.78;4957570;28;20038;-64
2023/12/30 03:38:56;;;;;;;5.05;0.25;;;;;;;2.24;58.15;100484.00;4980711;28;21108;-64
2023/12/30 03:41:22;;;;;;;5.65;0.52;;;;;;;1.91;58.76;100480.91;4960676;28;20366;-66
2023/12/30 03:43:48;;;;;;;4.90;0.65;;;;;;;2.08;58.45;100478.13;4973484;28;20050;-65
2023/12/30 03:46:14;;;;;;;3.67;0.73;;;;;;;2.31;58.20;100470.16;4970957;28;20409;-63
2023/12/30 03:48:42;;;;;;;6.97;0.90;;;;;;;2.42;57.56;100490.66;4955184;28;20440;-62
2023/12/30 03:51:10;;;;;;;12.55;1.27;;;;;;;2.03;59.17;100494.53;4955582;28;20050;-64
2023/12/30 03:53:35;;;;;;;7.07;0.95;;;;;;;2.20;58.71;100489.19;4957960;28;20040;-63
2023/12/30 03:56:01;;;;;;;5.22;0.47;;;;;;;2.28;58.20;100495.97;4951291;28;20039;-64
2023/12/30 03:58:27;;;;;;;9.30;0.68;;;;;;;1.79;59.63;100501.63;4987406;28;20042;-62
2023/12/30 04:00:52;;;;;;;9.57;1.30;;;;;;;1.80;59.66;100500.78;4955931;28;20050;-63
2023/12/30 04:03:18;;;;;;;9.70;0.68;;;;;;;2.57;57.29;100492.19;4955003;28;20053;-62
2023/12/30 04:05:43;;;;;;;2.47;0.20;;;;;;;2.11;59.19;100496.16;4956470;28;20869;-63
2023/12/30 04:08:09;;;;;;;3.40;0.88;;;;;;;2.02;58.99;100503.13;4956117;28;20527;-65
2023/12/30 04:10:34;;;;;;;6.80;1.00;;;;;;;2.16;59.06;100509.00;4960462;28;20121;-65
2023/12/30 04:13:00;;;;;;;2.90;0.60;;;;;;;2.29;58.55;100508.00;4952794;28;20072;-64
2023/12/30 04:15:25;;;;;;;2.88;1.02;;;;;;;2.33;58.86;100509.69;4972450;28;20150;-64
2023/12/30 04:17:51;;;;;;;7.28;0.47;;;;;;;2.10;59.30;100506.50;4960296;28;20595;-63
2023/12/30 04:20:16;;;;;;;8.25;0.50;;;;;;;2.30;58.77;100517.44;4948317;28;20049;-64
2023/12/30 04:22:45;;;;;;;11.40;0.50;;;;;;;1.97;59.86;100504.91;4960707;28;20051;-64
2023/12/30 04:25:10;;;;;;;11.10;1.23;;;;;;;2.20;59.36;100507.22;4974113;28;20754;-63
2023/12/30 04:27:36;;;;;;;10.75;0.82;;;;;;;2.11;59.67;100513.38;4963417;28;20034;-63
2023/12/30 04:30:02;;;;;;;5.93;0.40;;;;;;;2.42;58.69;100520.72;4958033;28;20873;-65
2023/12/30 04:32:27;;;;;;;6.72;0.50;;;;;;;2.02;59.98;100531.47;4970818;28;20079;-63
2023/12/30 04:34:53;;;;;;;9.18;0.60;;;;;;;1.94;61.42;100540.16;4955909;28;20133;-64
2023/12/30 04:37:19;;;;;;;3.80;0.15;;;;;;;1.63;61.80;100556.75;4959952;28;21026;-66
2023/12/30 04:39:45;;;;;;;2.53;0.10;;;;;;;1.88;61.73;100583.16;4960987;28;20041;-63
2023/12/30 04:42:12;;;;;;;2.47;0.28;;;;;;;1.47;62.75;100569.75;4959506;28;20034;-63
2023/12/30 04:44:38;;;;;;;5.32;0.30;;;;;;;1.51;63.29;100558.56;4964470;28;20944;-65
2023/12/30 04:47:04;;;;;;;5.85;0.32;;;;;;;1.49;63.65;100550.00;4954868;28;20137;-65
2023/12/30 04:49:29;;;;;;;6.68;0.17;;;;;;;1.82;63.16;100573.78;4961417;28;20051;-64
2023/12/30 04:51:56;;;;;;;12.57;0.70;;;;;;;1.57;63.80;100559.38;4961677;28;20313;-65
2023/12/30 04:54:22;;;;;;;1.98;0.22;;;;;;;1.38;64.44;100572.34;4961560;28;20037;-65
2023/12/30 04:56:48;;;;;;;2.08;0.22;;;;;;;1.09;64.68;100580.25;4960867;28;20070;-65
2023/12/30 04:59:14;;;;;;;3.92;0.40;;;;;;;0.97;65.14;100557.16;4968594;28;20727;-65
2023/12/30 05:01:40;;;;;;;10.65;1.02;;;;;;;0.93;64.97;100551.19;4965765;28;20129;-65
2023/12/30 05:04:06;;;;;;;4.50;0.25;;;;;;;1.43;64.17;100560.31;4962745;28;20121;-66
2023/12/30 05:06:32;;;;;;;2.22;0.17;;;;;;;1.13;64.77;100570.78;4978225;28;20044;-66
2023/12/30 05:08:59;;;;;;;4.30;0.90;;;;;;;1.45;63.05;100547.44;4957570;28;20467;-63
2023/12/30 05:11:25;;;;;;;7.88;0.50;;;;;;;1.83;62.63;100570.31;4953227;28;20104;-63
2023/12/30 05:13:50;;;;;;;3.67;0.30;;;;;;;1.27;63.93;100569.00;4956808;28;20638;-63
2023/12/30 05:16:16;;;;;;;4.10;0.25;;;;;;;1.50;63.05;100566.28;4960580;28;20598;-63
2023/12/30 05:18:42;;;;;;;3.60;0.28;;;;;;;1.35;63.65;100574.09;4961334;28;20113;-64
2023/12/30 05:21:17;;;;;;;2.35;0.38;;;;;;;1.39;63.29;100584.34;4956589;28;20046;-63
2023/12/30 05:23:44;;;;;;;10.23;0.25;;;;;;;1.67;62.49;100584.22;4961273;28;20029;-63
2023/12/30 05:26:12;;;;;;;3.88;0.38;;;;;;;1.33;63.66;100581.84;4954639;28;20169;-63
2023/12/30 05:28:38;;;;;;;7.18;0.52;;;;;;;1.44;63.83;100592.97;4951744;28;20060;-65
2023/12/30 05:31:04;;;;;;;7.43;0.28;;;;;;;1.64;64.23;100604.81;4955488;28;20046;-63
2023/12/30 05:33:29;;;;;;;9.07;0.50;;;;;;;2.04;62.91;100609.66;4960701;28;20098;-63
2023/12/30 05:35:55;;;;;;;4.43;0.50;;;;;;;2.08;62.55;100601.88;4956111;28;20045;-63
2023/12/30 05:38:20;;;;;;;8.57;1.10;;;;;;;1.77;63.19;100605.59;4958848;28;21280;-64
2023/12/30 05:40:46;;;;;;;5.65;0.43;;;;;;;2.15;62.57;100602.69;4960531;28;20852;-64
2023/12/30 05:43:11;;;;;;;12.35;0.60;;;;;;;2.04;62.90;100605.38;4957862;28;20145;-64
2023/12/30 05:45:37;;;;;;;7.95;0.68;;;;;;;1.86;63.41;100619.28;4959335;28;20050;-64
2023/12/30 05:48:03;;;;;;;8.07;1.02;;;;;;;2.13;63.08;100622.47;4953703;28;20043;-63
2023/12/30 05:50:28;;;;;;;9.68;0.50;;;;;;;2.11;62.89;100621.66;4958483;28;20046;-64
2023/12/30 05:52:55;;;;;;;11.55;1.17;;;;;;;2.46;61.72;100612.69;4957330;28;20035;-62
2023/12/30 05:55:20;;;;;;;15.07;0.80;;;;;;;1.97;63.31;100619.16;4957976;28;20101;-64
2023/12/30 05:57:49;;;;;;;11.43;0.50;;;;;;;2.47;62.07;100620.44;4961242;28;20046;-64
2023/12/30 06:00:15;;;;;;;9.32;0.60;;;;;;;2.19;62.29;100609.53;4959721;28;21530;-63
2023/12/30 06:02:41;;;;;;;13.40;0.82;;;;;;;2.41;61.40;100620.50;4959789;28;20023;-64
2023/12/30 06:05:07;;;;;;;11.52;0.88;;;;;;;2.02;62.43;100627.75;4954188;28;20054;-63
2023/12/30 06:07:32;;;;;;;9.82;1.08;;;;;;;1.97;62.60;100628.63;4961029;28;20041;-63
2023/12/30 06:09:58;;;;;;;7.90;1.00;;;;;;;2.01;62.57;100630.31;4956903;28;20145;-63
2023/12/30 06:12:23;;;;;;;5.15;0.50;;;;;;;2.03;61.90;100634.59;4956932;28;20701;-64
2023/12/30 06:14:49;;;;;;;5.20;0.95;;;;;;;1.67;63.27;100640.88;4960346;28;20504;-64
2023/12/30 06:17:15;;;;;;;9.35;0.77;;;;;;;1.60;63.12;100636.66;4962593;28;20037;-66
2023/12/30 06:19:40;;;;;;;9.90;1.33;;;;;;;1.98;62.09;100645.81;4961979;28;20047;-67
2023/12/30 06:22:06;;;;;;;4.95;1.00;;;;;;;2.00;61.51;100644.06;4956336;28;20729;-67
2023/12/30 06:24:33;;;;;;;10.77;0.68;;;;;;;2.14;61.34;100637.94;4960211;28;20050;-67
2023/12/30 06:26:58;;;;;;;7.32;0.60;;;;;;;2.42;60.62;100641.97;4956605;28;20077;-67
2023/12/30 06:29:26;;;;;;;14.32;1.15;;;;;;;2.13;60.55;100645.66;4965387;28;21496;-64
2023/12/30 06:31:53;;;;;;;9.60;0.77;;;;;;;1.66;61.58;100636.59;4959554;28;20105;-65
2023/12/30 06:34:18;;;;;;;5.40;0.50;;;;;;;2.22;60.65;100650.78;4955694;28;20772;-65
2023/12/30 06:36:45;;;;;;;11.57;1.15;;;;;;;1.89;61.37;100642.44;4989060;28;20031;-65
2023/12/30 06:39:15;;;;;;;10.05;1.13;;;;;;;1.90;61.59;100656.19;4955980;28;21322;-65
2023/12/30 06:41:41;;;;;;;6.78;1.77;;;;;;;2.46;59.99;100653.97;4961160;28;20034;-65
2023/12/30 06:44:07;;;;;;;9.82;1.00;;;;;;;2.31;60.53;100650.69;4950782;28;20046;-65
2023/12/30 06:46:33;;;;;;;4.38;0.40;;;;;;;1.99;61.26;100656.09;4958829;28;20034;-66
2023/12/30 06:48:59;;;;;;;8.25;0.73;;;;;;;2.60;60.05;100657.28;4955998;28;20034;-66
2023/12/30 06:51:25;;;;;;;8.30;0.77;;;;;;;2.21;61.13;100654.22;4955709;28;20038;-66
2023/12/30 06:53:50;;;;;;;7.75;0.75;;;;;;;2.45;60.12;100660.88;4957558;28;20181;-67
2023/12/30 06:56:16;;;;;;;10.95;1.20;;;;;;;2.43;60.53;100672.06;4953515;28;20038;-65
2023/12/30 06:58:45;;;;;;;7.18;0.60;;;;;;;2.51;60.09;100670.25;4957323;28;20042;-65
2023/12/30 07:01:14;;;;;;;4.85;2.03;;;;;;;2.76;59.41;100687.22;4951718;28;20143;-65
2023/12/30 07:03:40;;;;;;;5.25;0.50;;;;;;;2.30;60.69;100682.50;4958027;28;20714;-66
2023/12/30 07:06:05;;;;;;;6.70;0.65;;;;;;;2.41;60.46;100689.28;4953201;28;20042;-66
2023/12/30 07:08:31;;;;;;;5.80;1.45;;;;;;;2.50;60.14;100691.78;4957558;28;20097;-66
2023/12/30 07:10:57;;;;;;;10.32;1.05;;;;;;;2.87;59.39;100701.75;4954407;28;20051;-66
2023/12/30 07:13:22;;;;;;;8.57;0.45;;;;;;;2.93;58.93;100696.50;4954344;28;20097;-67
2023/12/30 07:15:50;;;;;;;5.65;0.30;;;;;;;2.72;59.90;100708.75;4957465;28;20150;-66
2023/12/30 07:18:19;;;;;;;9.38;0.70;;;;;;;2.32;60.78;100711.69;4951917;28;20026;-66
2023/12/30 07:20:44;;;;;;;19.60;0.55;;;;;;;2.81;59.54;100712.13;4956013;28;20039;-65
2023/12/30 07:23:10;;;;;;;6.18;0.95;;;;;;;2.96;59.29;100720.56;4951467;28;20100;-64
2023/12/30 07:25:36;;;;;;;17.58;1.67;;;;;;;2.81;59.53;100722.47;4987985;28;20501;-65
2023/12/30 07:28:02;;;;;;;12.75;1.83;;;;;;;2.68;59.88;100729.47;4959390;28;20686;-63
2023/12/30 07:30:28;;;;;;;10.05;2.17;;;;;;;2.62;60.17;100720.03;4952744;28;20743;-66
2023/12/30 07:32:53;;;;;;;9.73;0.98;;;;;;;2.85;59.74;100713.81;4962304;28;20065;-66
2023/12/30 07:35:20;;;;;;;9.85;1.13;;;;;;;2.65;60.15;100730.34;4952656;28;20046;-67
2023/12/30 07:37:46;;;;;;;9.95;0.95;;;;;;;2.43;60.35;100731.41;4959730;28;20226;-67
2023/12/30 07:40:12;;;;;;;4.85;0.50;;;;;;;2.85;59.53;100744.78;4955147;28;20633;-65
2023/12/30 07:42:37;;;;;;;11.75;0.55;;;;;;;3.27;58.62;100758.09;4959729;28;20550;-69
2023/12/30 07:45:06;;;;;;;12.40;0.77;;;;;;;3.42;58.25;100752.78;4969681;28;20045;-67
2023/12/30 07:47:32;;;;;;;7.38;0.40;;;;;;;3.29;58.81;100758.97;4954311;28;20568;-65
2023/12/30 07:49:58;;;;;;;3.95;0.90;;;;;;;3.18;58.87;100761.66;4973032;28;20090;-65
2023/12/30 07:52:23;;;;;;;4.15;0.32;;;;;;;2.96;59.32;100768.78;4955564;28;20046;-66
2023/12/30 07:54:49;;;;;;;5.78;0.60;;;;;;;1.96;61.76;100784.19;4963035;28;20053;-66
2023/12/30 07:57:14;;;;;;;5.85;0.65;;;;;;;2.11;62.03;100796.97;4954410;28;20114;-65
2023/12/30 07:59:40;;;;;;;2.55;0.30;;;;;;;2.10;61.02;100788.38;4961505;28;20035;-66
2023/12/30 08:02:05;;;;;;;5.00;0.50;;;;;;;1.60;63.07;100788.66;4975561;28;20505;-67
2023/12/30 08:04:31;;;;;;;3.03;0.22;;;;;;;1.86;62.31;100802.28;4958473;28;20931;-67
2023/12/30 08:06:57;;;;;;;1.98;0.10;;;;;;;2.04;61.68;100795.28;4961956;28;20054;-69
2023/12/30 08:09:22;;;;;;;2.47;0.40;;;;;;;1.98;62.17;100795.34;4963473;28;20138;-67
2023/12/30 08:11:48;;;;;;;0.90;0.13;;;;;;;2.16;61.46;100797.78;4960408;28;20034;-68
2023/12/30 08:14:15;;;;;;;2.15;0.40;;;;;;;2.10;61.70;100801.25;4954925;28;20596;-66
2023/12/30 08:16:40;;;;;;;9.27;0.52;;;;;;;2.39;61.03;100818.28;4963103;28;20045;-66
2023/12/30 08:19:06;;;;;;;9.35;0.52;;;;;;;2.35;61.61;100811.41;4952551;28;20870;-67
2023/12/30 08:21:32;;;;;;;4.97;0.82;;;;;;;2.45;61.44;100810.50;4984984;28;21022;-66
2023/12/30 08:23:58;;;;;;;8.30;1.50;;;;;;;2.55;61.60;100816.44;4959068;28;20098;-67
2023/12/30 08:26:25;;;;;;;3.38;0.63;;;;;;;2.54;61.50;100823.31;4956445;28;20093;-71
2023/12/30 08:28:51;;;;;;;11.10;0.95;;;;;;;2.56;61.35;100826.75;4960680;28;20042;-67
2023/12/30 08:31:17;;;;;;;5.15;0.38;;;;;;;2.85;60.68;100838.56;4954327;28;20041;-66
2023/12/30 08:33:44;;;;;;;3.95;0.40;;;;;;;2.83;60.87;100849.78;4962162;28;20037;-71
2023/12/30 08:36:09;;;;;;;8.02;0.85;;;;;;;2.80;60.89;100848.09;4959495;28;20134;-67
2023/12/30 08:38:34;;;;;;;10.63;1.85;;;;;;;2.78;60.85;100839.50;4991068;28;20041;-66
2023/12/30 08:41:01;;;;;;;1.83;0.20;;;;;;;2.79;60.71;100848.09;4958340;28;20435;-65
2023/12/30 08:43:30;;;;;;;8.68;0.68;;;;;;;2.86;60.35;100865.25;4961636;28;20038;-64
2023/12/30 08:45:57;;;;;;;8.07;0.95;;;;;;;2.78;61.06;100865.31;4958966;28;20062;-64
2023/12/30 08:48:22;;;;;;;6.63;0.40;;;;;;;2.74;60.56;100859.31;4954273;28;20441;-65
2023/12/30 08:50:48;;;;;;;5.13;0.38;;;;;;;2.93;60.66;100841.06;4957795;28;20038;-63
2023/12/30 08:53:15;;;;;;;2.72;0.63;;;;;;;2.73;60.84;100857.59;4958986;28;20328;-63
2023/12/30 08:55:41;;;;;;;8.95;0.75;;;;;;;2.51;61.79;100861.19;4956213;28;20311;-63
2023/12/30 08:58:07;;;;;;;2.40;0.50;;;;;;;2.89;60.48;100853.19;4958379;28;20042;-63
2023/12/30 09:00:32;;;;;;;9.18;0.60;;;;;;;2.75;60.72;100858.41;4954922;28;20536;-62
2023/12/30 09:02:58;;;;;;;8.23;0.85;;;;;;;3.09;60.14;100871.06;4961124;28;20707;-63
2023/12/30 09:05:23;;;;;;;5.03;0.52;;;;;;;3.02;59.87;100874.56;4951679;28;20030;-64
2023/12/30 09:07:49;;;;;;;5.88;0.82;;;;;;;2.99;60.43;100874.59;4959603;28;20034;-64
2023/12/30 09:10:16;;;;;;;4.72;0.85;;;;;;;3.03;60.29;100870.28;4956283;28;20100;-63
2023/12/30 09:12:43;;;;;;;2.05;0.30;;;;;;;3.38;59.23;100880.28;4958800;28;20034;-64
2023/12/30 09:15:08;;;;;;;10.35;1.02;;;;;;;3.29;59.48;100881.25;4958479;28;20674;-63
2023/12/30 09:17:34;;;;;;;7.75;0.70;;;;;;;3.42;59.55;100881.97;4968918;28;20037;-63
2023/12/30 09:20:00;;;;;;;7.57;1.75;;;;;;;3.48;59.46;100896.56;4957096;28;20056;-64
2023/12/30 09:22:27;;;;;;;11.50;0.85;;;;;;;3.02;60.31;100900.38;4954810;28;20062;-64
2023/12/30 09:24:52;;;;;;;2.25;0.70;;;;;;;2.99;60.19;100897.84;4962297;28;20069;-63
2023/12/30 09:27:18;;;;;;;9.23;0.80;;;;;;;2.37;62.01;100886.22;4953791;28;20062;-65
2023/12/30 09:29:43;;;;;;;8.15;0.85;;;;;;;2.82;60.69;100884.19;4961013;28;20116;-64
2023/12/30 09:32:09;;;;;;;9.70;1.02;;;;;;;2.68;60.59;100882.56;4956672;28;20201;-63
2023/12/30 09:34:35;;;;;;;6.35;1.08;;;;;;;3.13;60.02;100888.22;4954890;28;20061;-63
2023/12/30 09:37:00;;;;;;;7.70;0.85;;;;;;;2.89;60.45;100893.59;4962089;28;20485;-64
2023/12/30 09:39:26;;;;;;;4.32;1.05;;;;;;;3.03;59.55;100898.69;4953516;28;20042;-63
2023/12/30 09:41:52;;;;;;;4.45;0.43;;;;;;;3.55;58.96;100901.66;4960502;28;20031;-64
2023/12/30 09:44:18;;;;;;;10.15;1.48;;;;;;;3.11;59.12;100908.06;4957045;28;20154;-64
2023/12/30 09:46:44;;;;;;;8.93;0.75;;;;;;;3.24;59.13;100903.63;4946505;28;20563;-63
2023/12/30 09:49:13;;;;;;;8.57;1.45;;;;;;;3.44;59.02;100911.25;4957709;28;20409;-64
2023/12/30 09:51:38;;;;;;;3.22;0.30;;;;;;;3.63;58.33;100895.53;4957937;28;20039;-64
2023/12/30 09:54:04;;;;;;;15.10;1.00;;;;;;;3.45;58.54;100902.63;4958451;28;20042;-63
2023/12/30 09:56:31;;;;;;;8.80;1.15;;;;;;;3.35;58.97;100926.81;4961819;28;20093;-64
2023/12/30 09:58:57;;;;;;;5.13;0.73;;;;;;;3.17;58.87;100927.81;4961344;28;20097;-62
2023/12/30 10:01:24;;;;;;;8.40;0.52;;;;;;;3.95;56.80;100918.47;4970642;28;20125;-63
2023/12/30 10:03:49;;;;;;;10.65;1.35;;;;;;;3.34;58.73;100925.13;4966408;28;20118;-63
2023/12/30 10:06:20;;;;;;;8.88;0.70;;;;;;;3.41;58.66;100920.75;4955312;28;20394;-64
2023/12/30 10:08:48;;;;;;;3.35;0.63;;;;;;;3.11;58.63;100922.69;4960938;28;20026;-64
2023/12/30 10:11:13;;;;;;;8.20;0.50;;;;;;;3.34;57.88;100920.81;4954756;28;20069;-64
2023/12/30 10:13:39;;;;;;;8.68;1.25;;;;;;;3.36;58.07;100928.56;4956719;28;20027;-64
2023/12/30 10:16:06;;;;;;;10.55;1.05;;;;;;;3.12;58.42;100929.59;4973210;28;20042;-64
2023/12/30 10:18:38;;;;;;;7.80;1.08;;;;;;;3.26;58.43;100929.47;4952695;28;20440;-64
2023/12/30 10:21:05;;;;;;;4.68;0.38;;;;;;;3.52;57.92;100924.94;4957585;28;20358;-65
2023/12/30 10:23:34;;;;;;;4.78;0.63;;;;;;;2.93;58.08;100923.69;4952406;28;20129;-63
2023/12/30 10:26:04;;;;;;;6.07;0.35;;;;;;;3.82;56.57;100925.50;4956245;28;20665;-63
2023/12/30 10:28:30;;;;;;;6.75;0.80;;;;;;;3.48;57.36;100928.44;4952194;28;20499;-63
2023/12/30 10:31:03;;;;;;;10.25;0.73;;;;;;;3.11;58.41;100927.84;4986889;28;20047;-63
2023/12/30 10:33:29;;;;;;;7.55;1.02;;;;;;;3.63;56.92;100929.13;4951766;28;20376;-63
2023/12/30 10:35:55;;;;;;;6.43;0.50;;;;;;;3.24;57.79;100920.88;4964460;28;20138;-63
2023/12/30 10:38:22;;;;;;;11.90;5.43;;;;;;;3.29;57.34;100926.88;4955344;28;20062;-63
2023/12/30 10:40:47;;;;;;;6.18;1.70;;;;;;;3.49;57.51;100922.41;4955485;28;20196;-63
2023/12/30 10:43:13;;;;;;;5.28;1.38;;;;;;;3.01;58.47;100921.91;4953161;28;20034;-66
2023/12/30 10:45:39;;;;;;;4.70;1.55;;;;;;;3.42;57.55;100918.16;4952942;28;20129;-63
2023/12/30 10:48:08;;;;;;;2.95;0.60;;;;;;;3.35;57.41;100924.25;4954951;28;20061;-63
2023/12/30 10:50:37;;;;;;;7.18;0.60;;;;;;;3.02;58.18;100926.19;4953533;28;20038;-63
2023/12/30 10:53:08;;;;;;;5.07;0.82;;;;;;;3.85;56.53;100930.66;4957606;28;20046;-63
2023/12/30 10:55:36;;;;;;;5.83;0.57;;;;;;;2.82;57.96;100928.06;4952603;28;20078;-63
2023/12/30 10:58:32;;;;;;;5.78;0.50;;;;;;;3.81;56.68;100934.13;4955456;28;20343;-63
2023/12/30 11:01:00;;;;;;;8.70;0.75;;;;;;;3.34;57.50;100925.97;4957828;28;20051;-64
2023/12/30 11:03:27;;;;;;;12.88;0.75;;;;;;;3.48;57.06;100938.75;4953033;28;20045;-65
2023/12/30 11:06:10;;;;;;;10.95;0.50;;;;;;;3.17;57.98;100939.00;4974044;28;20516;-64
2023/12/30 11:08:35;;;;;;;;;;;;;;;3.35;57.36;100937.16;4958060;28;20034;-65
2023/12/30 11:11:04;;;;;;;10.57;0.32;;;;;;;3.29;57.37;100955.28;4956511;28;19968;-64
2023/12/30 11:13:34;;;;;;;5.18;0.60;;;;;;;3.35;57.42;100939.75;4950791;28;20034;-63
2023/12/30 11:16:16;;;;;;;5.40;0.40;;;;;;;3.27;57.61;100931.16;4955623;28;20057;-64
2023/12/30 11:18:55;;;;;;;12.27;1.35;;;;;;;3.37;57.56;100935.44;4953215;28;20038;-64
2023/12/30 11:21:38;;;;;;;3.85;0.50;;;;;;;3.04;58.91;100946.84;4968405;28;20616;-64
2023/12/30 11:24:07;;;;;;;4.75;0.73;;;;;;;2.85;58.61;100947.00;4954943;28;20082;-64
2023/12/30 11:26:34;;;;;;;5.30;0.85;;;;;;;2.99;59.01;100944.31;4952475;28;20076;-64
2023/12/30 11:29:01;;;;;;;13.10;0.75;;;;;;;3.66;57.25;100947.22;4955017;28;20043;-63